sensor_id;sensor_type;location;lat;lon;timestamp;P1;durP1;ratioP1;P2;durP2;ratioP2
2299;SDS011;1158;48.750;9.078;2023-07-29T00:00:44;4.50;;;2.40;;
2299;SDS011;1158;48.750;9.078;2023-07-29T00:03:11;4.03;;;2.83;;
2299;SDS011;1158;48.750;9.078;2023-07-29T00:05:38;8.43;;;2.90;;
2299;SDS011;1158;48.750;9.078;2023-07-29T00:08:05;5.07;;;3.03;;
2299;SDS011;1158;48.750;9.078;2023-07-29T00:10:35;6.80;;;2.40;;
2299;SDS011;1158;48.750;9.078;2023-07-29T00:13:03;3.03;;;2.43;;
2299;SDS011;1158;48.750;9.078;2023-07-29T00:15:30;4.60;;;2.50;;
2299;SDS011;1158;48.750;9.078;2023-07-29T00:17:56;4.90;;;3.83;;
2299;SDS011;1158;48.750;9.078;2023-07-29T00:20:24;4.07;;;3.30;;
2299;SDS011;1158;48.750;9.078;2023-07-29T00:22:50;3.83;;;2.83;;
2299;SDS011;1158;48.750;9.078;2023-07-29T00:25:18;3.30;;;2.43;;
2299;SDS011;1158;48.750;9.078;2023-07-29T00:27:47;5.93;;;3.63;;
2299;SDS011;1158;48.750;9.078;2023-07-29T00:30:13;4.13;;;2.70;;
2299;SDS011;1158;48.750;9.078;2023-07-29T00:32:40;6.30;;;2.93;;
2299;SDS011;1158;48.750;9.078;2023-07-29T00:35:07;5.70;;;3.23;;
2299;SDS011;1158;48.750;9.078;2023-07-29T00:37:34;7.27;;;2.87;;
2299;SDS011;1158;48.750;9.078;2023-07-29T00:40:02;4.40;;;2.80;;
2299;SDS011;1158;48.750;9.078;2023-07-29T00:42:30;4.03;;;2.43;;
2299;SDS011;1158;48.750;9.078;2023-07-29T00:44:58;8.60;;;3.27;;
2299;SDS011;1158;48.750;9.078;2023-07-29T00:47:24;4.20;;;3.30;;
2299;SDS011;1158;48.750;9.078;2023-07-29T00:49:51;4.03;;;2.47;;
2299;SDS011;1158;48.750;9.078;2023-07-29T00:52:18;6.63;;;3.20;;
2299;SDS011;1158;48.750;9.078;2023-07-29T00:54:45;4.60;;;3.43;;
2299;SDS011;1158;48.750;9.078;2023-07-29T00:57:12;7.50;;;2.93;;
2299;SDS011;1158;48.750;9.078;2023-07-29T00:59:41;4.07;;;3.13;;
2299;SDS011;1158;48.750;9.078;2023-07-29T01:02:09;5.37;;;3.27;;
2299;SDS011;1158;48.750;9.078;2023-07-29T01:04:36;7.40;;;3.50;;
2299;SDS011;1158;48.750;9.078;2023-07-29T01:07:05;5.00;;;3.00;;
2299;SDS011;1158;48.750;9.078;2023-07-29T01:09:39;7.10;;;3.33;;
2299;SDS011;1158;48.750;9.078;2023-07-29T01:12:17;3.53;;;2.90;;
2299;SDS011;1158;48.750;9.078;2023-07-29T01:14:51;4.83;;;2.90;;
2299;SDS011;1158;48.750;9.078;2023-07-29T01:17:29;5.67;;;3.17;;
2299;SDS011;1158;48.750;9.078;2023-07-29T01:20:00;2.97;;;2.53;;
2299;SDS011;1158;48.750;9.078;2023-07-29T01:22:31;5.67;;;3.13;;
2299;SDS011;1158;48.750;9.078;2023-07-29T01:25:01;3.47;;;2.77;;
2299;SDS011;1158;48.750;9.078;2023-07-29T01:27:28;4.90;;;3.33;;
2299;SDS011;1158;48.750;9.078;2023-07-29T01:29:55;9.60;;;3.60;;
2299;SDS011;1158;48.750;9.078;2023-07-29T01:32:24;5.43;;;3.43;;
2299;SDS011;1158;48.750;9.078;2023-07-29T01:34:56;4.80;;;3.70;;
2299;SDS011;1158;48.750;9.078;2023-07-29T01:37:42;3.90;;;3.17;;
2299;SDS011;1158;48.750;9.078;2023-07-29T01:40:15;4.07;;;3.03;;
2299;SDS011;1158;48.750;9.078;2023-07-29T01:42:44;7.20;;;3.47;;
2299;SDS011;1158;48.750;9.078;2023-07-29T01:45:11;3.93;;;2.67;;
2299;SDS011;1158;48.750;9.078;2023-07-29T01:47:38;6.70;;;3.40;;
2299;SDS011;1158;48.750;9.078;2023-07-29T01:50:06;4.50;;;2.87;;
2299;SDS011;1158;48.750;9.078;2023-07-29T01:52:34;5.10;;;3.20;;
2299;SDS011;1158;48.750;9.078;2023-07-29T01:55:01;6.83;;;3.47;;
2299;SDS011;1158;48.750;9.078;2023-07-29T01:57:29;8.70;;;3.63;;
2299;SDS011;1158;48.750;9.078;2023-07-29T01:59:56;6.60;;;3.73;;
2299;SDS011;1158;48.750;9.078;2023-07-29T02:02:23;5.60;;;3.23;;
2299;SDS011;1158;48.750;9.078;2023-07-29T02:04:49;4.07;;;3.30;;
2299;SDS011;1158;48.750;9.078;2023-07-29T02:07:17;6.70;;;3.30;;
2299;SDS011;1158;48.750;9.078;2023-07-29T02:09:44;7.43;;;3.57;;
2299;SDS011;1158;48.750;9.078;2023-07-29T02:12:11;4.20;;;3.10;;
2299;SDS011;1158;48.750;9.078;2023-07-29T02:14:39;4.33;;;3.03;;
2299;SDS011;1158;48.750;9.078;2023-07-29T02:17:06;4.80;;;3.50;;
2299;SDS011;1158;48.750;9.078;2023-07-29T02:19:33;4.27;;;3.23;;
2299;SDS011;1158;48.750;9.078;2023-07-29T02:22:00;5.00;;;3.30;;
2299;SDS011;1158;48.750;9.078;2023-07-29T02:24:27;5.53;;;3.20;;
2299;SDS011;1158;48.750;9.078;2023-07-29T02:26:54;5.87;;;3.10;;
2299;SDS011;1158;48.750;9.078;2023-07-29T02:29:21;5.70;;;3.00;;
2299;SDS011;1158;48.750;9.078;2023-07-29T02:31:49;4.60;;;3.20;;
2299;SDS011;1158;48.750;9.078;2023-07-29T02:34:16;4.60;;;3.13;;
2299;SDS011;1158;48.750;9.078;2023-07-29T02:36:43;7.80;;;3.53;;
2299;SDS011;1158;48.750;9.078;2023-07-29T02:39:10;5.67;;;3.60;;
2299;SDS011;1158;48.750;9.078;2023-07-29T02:41:37;7.70;;;2.83;;
2299;SDS011;1158;48.750;9.078;2023-07-29T02:44:04;6.10;;;3.07;;
2299;SDS011;1158;48.750;9.078;2023-07-29T02:46:31;6.00;;;3.10;;
2299;SDS011;1158;48.750;9.078;2023-07-29T02:49:01;4.27;;;2.90;;
2299;SDS011;1158;48.750;9.078;2023-07-29T02:51:28;4.77;;;3.23;;
2299;SDS011;1158;48.750;9.078;2023-07-29T02:53:55;5.70;;;3.63;;
2299;SDS011;1158;48.750;9.078;2023-07-29T02:56:22;3.70;;;3.20;;
2299;SDS011;1158;48.750;9.078;2023-07-29T02:58:49;4.33;;;3.70;;
2299;SDS011;1158;48.750;9.078;2023-07-29T03:01:17;4.90;;;3.83;;
2299;SDS011;1158;48.750;9.078;2023-07-29T03:03:44;4.20;;;3.30;;
2299;SDS011;1158;48.750;9.078;2023-07-29T03:06:12;4.90;;;3.30;;
2299;SDS011;1158;48.750;9.078;2023-07-29T03:08:40;4.77;;;3.83;;
2299;SDS011;1158;48.750;9.078;2023-07-29T03:11:07;5.83;;;3.67;;
2299;SDS011;1158;48.750;9.078;2023-07-29T03:13:35;4.93;;;3.33;;
2299;SDS011;1158;48.750;9.078;2023-07-29T03:16:05;4.83;;;3.40;;
2299;SDS011;1158;48.750;9.078;2023-07-29T03:18:32;5.30;;;3.27;;
2299;SDS011;1158;48.750;9.078;2023-07-29T03:20:59;4.87;;;3.30;;
2299;SDS011;1158;48.750;9.078;2023-07-29T03:23:28;4.53;;;3.70;;
2299;SDS011;1158;48.750;9.078;2023-07-29T03:25:56;4.70;;;3.53;;
2299;SDS011;1158;48.750;9.078;2023-07-29T03:28:23;7.40;;;3.90;;
2299;SDS011;1158;48.750;9.078;2023-07-29T03:30:52;5.43;;;3.00;;
2299;SDS011;1158;48.750;9.078;2023-07-29T03:33:19;6.57;;;3.40;;
2299;SDS011;1158;48.750;9.078;2023-07-29T03:35:45;6.97;;;3.50;;
2299;SDS011;1158;48.750;9.078;2023-07-29T03:38:13;5.00;;;3.73;;
2299;SDS011;1158;48.750;9.078;2023-07-29T03:40:41;4.73;;;2.80;;
2299;SDS011;1158;48.750;9.078;2023-07-29T03:43:08;4.80;;;3.67;;
2299;SDS011;1158;48.750;9.078;2023-07-29T03:45:35;6.70;;;3.90;;
2299;SDS011;1158;48.750;9.078;2023-07-29T03:48:03;6.90;;;3.70;;
2299;SDS011;1158;48.750;9.078;2023-07-29T03:50:32;6.37;;;3.23;;
2299;SDS011;1158;48.750;9.078;2023-07-29T03:53:00;5.47;;;3.80;;
2299;SDS011;1158;48.750;9.078;2023-07-29T03:55:26;5.07;;;3.70;;
2299;SDS011;1158;48.750;9.078;2023-07-29T03:57:56;5.33;;;3.27;;
2299;SDS011;1158;48.750;9.078;2023-07-29T04:00:22;4.57;;;3.70;;
2299;SDS011;1158;48.750;9.078;2023-07-29T04:02:49;6.43;;;4.20;;
2299;SDS011;1158;48.750;9.078;2023-07-29T04:05:16;6.80;;;4.37;;
2299;SDS011;1158;48.750;9.078;2023-07-29T04:07:43;5.03;;;3.70;;
2299;SDS011;1158;48.750;9.078;2023-07-29T04:10:10;6.67;;;3.80;;
2299;SDS011;1158;48.750;9.078;2023-07-29T04:12:37;8.70;;;3.87;;
2299;SDS011;1158;48.750;9.078;2023-07-29T04:15:06;6.57;;;3.60;;
2299;SDS011;1158;48.750;9.078;2023-07-29T04:17:33;7.57;;;4.50;;
2299;SDS011;1158;48.750;9.078;2023-07-29T04:20:00;9.60;;;3.80;;
2299;SDS011;1158;48.750;9.078;2023-07-29T04:22:27;6.73;;;3.50;;
2299;SDS011;1158;48.750;9.078;2023-07-29T04:24:54;5.73;;;3.77;;
2299;SDS011;1158;48.750;9.078;2023-07-29T04:27:21;7.13;;;3.73;;
2299;SDS011;1158;48.750;9.078;2023-07-29T04:29:48;5.20;;;4.00;;
2299;SDS011;1158;48.750;9.078;2023-07-29T04:32:16;5.77;;;4.27;;
2299;SDS011;1158;48.750;9.078;2023-07-29T04:34:42;5.67;;;3.97;;
2299;SDS011;1158;48.750;9.078;2023-07-29T04:37:09;9.83;;;4.27;;
2299;SDS011;1158;48.750;9.078;2023-07-29T04:39:36;8.13;;;3.87;;
2299;SDS011;1158;48.750;9.078;2023-07-29T04:42:03;4.80;;;3.57;;
2299;SDS011;1158;48.750;9.078;2023-07-29T04:44:30;7.20;;;5.03;;
2299;SDS011;1158;48.750;9.078;2023-07-29T04:46:57;12.00;;;4.70;;
2299;SDS011;1158;48.750;9.078;2023-07-29T04:49:25;8.30;;;4.60;;
2299;SDS011;1158;48.750;9.078;2023-07-29T04:51:52;7.10;;;4.60;;
2299;SDS011;1158;48.750;9.078;2023-07-29T04:54:19;8.93;;;5.20;;
2299;SDS011;1158;48.750;9.078;2023-07-29T04:56:46;9.37;;;4.73;;
2299;SDS011;1158;48.750;9.078;2023-07-29T04:59:13;6.03;;;4.33;;
2299;SDS011;1158;48.750;9.078;2023-07-29T05:01:40;13.13;;;4.97;;
2299;SDS011;1158;48.750;9.078;2023-07-29T05:04:08;10.10;;;4.97;;
2299;SDS011;1158;48.750;9.078;2023-07-29T05:06:36;8.73;;;4.57;;
2299;SDS011;1158;48.750;9.078;2023-07-29T05:09:12;7.63;;;4.60;;
2299;SDS011;1158;48.750;9.078;2023-07-29T05:11:39;6.40;;;4.27;;
2299;SDS011;1158;48.750;9.078;2023-07-29T05:14:05;7.27;;;4.80;;
2299;SDS011;1158;48.750;9.078;2023-07-29T05:16:34;7.70;;;4.60;;
2299;SDS011;1158;48.750;9.078;2023-07-29T05:19:01;8.33;;;4.57;;
2299;SDS011;1158;48.750;9.078;2023-07-29T05:21:28;5.30;;;4.20;;
2299;SDS011;1158;48.750;9.078;2023-07-29T05:23:56;5.20;;;3.70;;
2299;SDS011;1158;48.750;9.078;2023-07-29T05:26:23;7.63;;;4.00;;
2299;SDS011;1158;48.750;9.078;2023-07-29T05:28:50;9.07;;;4.60;;
2299;SDS011;1158;48.750;9.078;2023-07-29T05:31:17;8.90;;;4.07;;
2299;SDS011;1158;48.750;9.078;2023-07-29T05:33:43;6.33;;;3.77;;
2299;SDS011;1158;48.750;9.078;2023-07-29T05:36:10;6.97;;;4.50;;
2299;SDS011;1158;48.750;9.078;2023-07-29T05:38:37;5.83;;;4.50;;
2299;SDS011;1158;48.750;9.078;2023-07-29T05:41:05;11.40;;;4.37;;
2299;SDS011;1158;48.750;9.078;2023-07-29T05:43:32;5.83;;;4.13;;
2299;SDS011;1158;48.750;9.078;2023-07-29T05:45:58;7.30;;;5.00;;
2299;SDS011;1158;48.750;9.078;2023-07-29T05:48:25;8.83;;;4.80;;
2299;SDS011;1158;48.750;9.078;2023-07-29T05:50:52;5.53;;;4.30;;
2299;SDS011;1158;48.750;9.078;2023-07-29T05:53:19;7.30;;;4.70;;
2299;SDS011;1158;48.750;9.078;2023-07-29T05:55:45;8.37;;;4.43;;
2299;SDS011;1158;48.750;9.078;2023-07-29T05:58:14;4.97;;;3.63;;
2299;SDS011;1158;48.750;9.078;2023-07-29T06:00:40;6.47;;;4.30;;
2299;SDS011;1158;48.750;9.078;2023-07-29T06:03:07;4.53;;;3.50;;
2299;SDS011;1158;48.750;9.078;2023-07-29T06:05:34;7.80;;;3.77;;
2299;SDS011;1158;48.750;9.078;2023-07-29T06:08:01;5.70;;;3.00;;
2299;SDS011;1158;48.750;9.078;2023-07-29T06:10:27;7.40;;;3.17;;
2299;SDS011;1158;48.750;9.078;2023-07-29T06:12:54;4.40;;;2.70;;
2299;SDS011;1158;48.750;9.078;2023-07-29T06:15:22;5.33;;;3.27;;
2299;SDS011;1158;48.750;9.078;2023-07-29T06:17:49;5.63;;;2.70;;
2299;SDS011;1158;48.750;9.078;2023-07-29T06:20:16;6.60;;;2.90;;
2299;SDS011;1158;48.750;9.078;2023-07-29T06:22:43;5.27;;;3.07;;
2299;SDS011;1158;48.750;9.078;2023-07-29T06:25:09;4.93;;;2.70;;
2299;SDS011;1158;48.750;9.078;2023-07-29T06:27:36;4.47;;;2.40;;
2299;SDS011;1158;48.750;9.078;2023-07-29T06:30:06;6.53;;;2.67;;
2299;SDS011;1158;48.750;9.078;2023-07-29T06:32:35;4.60;;;2.40;;
2299;SDS011;1158;48.750;9.078;2023-07-29T06:35:02;5.07;;;2.20;;
2299;SDS011;1158;48.750;9.078;2023-07-29T06:37:29;3.50;;;2.17;;
2299;SDS011;1158;48.750;9.078;2023-07-29T06:39:56;4.27;;;2.37;;
2299;SDS011;1158;48.750;9.078;2023-07-29T06:42:22;3.50;;;2.30;;
2299;SDS011;1158;48.750;9.078;2023-07-29T06:44:59;2.83;;;2.30;;
2299;SDS011;1158;48.750;9.078;2023-07-29T06:47:26;7.20;;;2.80;;
2299;SDS011;1158;48.750;9.078;2023-07-29T06:49:54;3.77;;;2.17;;
2299;SDS011;1158;48.750;9.078;2023-07-29T06:52:21;8.83;;;2.47;;
2299;SDS011;1158;48.750;9.078;2023-07-29T06:54:48;5.20;;;2.10;;
2299;SDS011;1158;48.750;9.078;2023-07-29T06:57:15;4.70;;;2.63;;
2299;SDS011;1158;48.750;9.078;2023-07-29T06:59:41;4.73;;;2.03;;
2299;SDS011;1158;48.750;9.078;2023-07-29T07:02:08;4.37;;;2.80;;
2299;SDS011;1158;48.750;9.078;2023-07-29T07:04:35;4.90;;;3.07;;
2299;SDS011;1158;48.750;9.078;2023-07-29T07:07:03;3.50;;;2.57;;
2299;SDS011;1158;48.750;9.078;2023-07-29T07:09:30;4.23;;;2.40;;
2299;SDS011;1158;48.750;9.078;2023-07-29T07:11:57;6.40;;;2.77;;
2299;SDS011;1158;48.750;9.078;2023-07-29T07:14:24;3.60;;;2.50;;
2299;SDS011;1158;48.750;9.078;2023-07-29T07:16:51;5.60;;;2.90;;
2299;SDS011;1158;48.750;9.078;2023-07-29T07:19:17;3.73;;;2.27;;
2299;SDS011;1158;48.750;9.078;2023-07-29T07:21:44;4.70;;;2.17;;
2299;SDS011;1158;48.750;9.078;2023-07-29T07:24:12;4.07;;;2.20;;
2299;SDS011;1158;48.750;9.078;2023-07-29T07:26:39;3.60;;;2.10;;
2299;SDS011;1158;48.750;9.078;2023-07-29T07:29:06;4.53;;;2.23;;
2299;SDS011;1158;48.750;9.078;2023-07-29T07:31:33;2.93;;;1.90;;
2299;SDS011;1158;48.750;9.078;2023-07-29T07:34:00;3.40;;;2.40;;
2299;SDS011;1158;48.750;9.078;2023-07-29T07:36:28;5.13;;;1.80;;
2299;SDS011;1158;48.750;9.078;2023-07-29T07:38:56;3.73;;;2.10;;
2299;SDS011;1158;48.750;9.078;2023-07-29T07:41:24;6.07;;;2.43;;
2299;SDS011;1158;48.750;9.078;2023-07-29T07:43:50;5.40;;;2.33;;
2299;SDS011;1158;48.750;9.078;2023-07-29T07:46:17;3.50;;;1.93;;
2299;SDS011;1158;48.750;9.078;2023-07-29T07:48:44;2.70;;;1.97;;
2299;SDS011;1158;48.750;9.078;2023-07-29T07:51:11;3.13;;;2.10;;
2299;SDS011;1158;48.750;9.078;2023-07-29T07:53:38;6.90;;;2.47;;
2299;SDS011;1158;48.750;9.078;2023-07-29T07:56:05;4.10;;;2.30;;
2299;SDS011;1158;48.750;9.078;2023-07-29T07:58:33;5.87;;;2.90;;
2299;SDS011;1158;48.750;9.078;2023-07-29T08:01:00;4.27;;;2.07;;
2299;SDS011;1158;48.750;9.078;2023-07-29T08:03:28;4.50;;;2.60;;
2299;SDS011;1158;48.750;9.078;2023-07-29T08:05:54;7.30;;;2.10;;
2299;SDS011;1158;48.750;9.078;2023-07-29T08:08:21;4.17;;;2.00;;
2299;SDS011;1158;48.750;9.078;2023-07-29T08:10:48;3.30;;;1.87;;
2299;SDS011;1158;48.750;9.078;2023-07-29T08:13:15;3.57;;;1.90;;
2299;SDS011;1158;48.750;9.078;2023-07-29T08:15:43;2.57;;;1.40;;
2299;SDS011;1158;48.750;9.078;2023-07-29T08:18:12;2.70;;;1.57;;
2299;SDS011;1158;48.750;9.078;2023-07-29T08:20:39;3.00;;;1.77;;
2299;SDS011;1158;48.750;9.078;2023-07-29T08:23:05;4.10;;;2.27;;
2299;SDS011;1158;48.750;9.078;2023-07-29T08:25:32;4.03;;;2.03;;
2299;SDS011;1158;48.750;9.078;2023-07-29T08:27:59;2.77;;;1.30;;
2299;SDS011;1158;48.750;9.078;2023-07-29T08:30:26;2.10;;;1.50;;
2299;SDS011;1158;48.750;9.078;2023-07-29T08:32:54;2.50;;;1.30;;
2299;SDS011;1158;48.750;9.078;2023-07-29T08:35:20;3.50;;;1.63;;
2299;SDS011;1158;48.750;9.078;2023-07-29T08:37:47;2.87;;;1.50;;
2299;SDS011;1158;48.750;9.078;2023-07-29T08:40:14;4.33;;;2.03;;
2299;SDS011;1158;48.750;9.078;2023-07-29T08:42:41;2.20;;;1.40;;
2299;SDS011;1158;48.750;9.078;2023-07-29T08:45:11;2.97;;;1.50;;
2299;SDS011;1158;48.750;9.078;2023-07-29T08:47:38;3.67;;;2.00;;
2299;SDS011;1158;48.750;9.078;2023-07-29T08:50:07;3.07;;;1.67;;
2299;SDS011;1158;48.750;9.078;2023-07-29T08:52:34;2.20;;;1.30;;
2299;SDS011;1158;48.750;9.078;2023-07-29T08:55:01;3.07;;;1.80;;
2299;SDS011;1158;48.750;9.078;2023-07-29T08:57:28;3.60;;;1.70;;
2299;SDS011;1158;48.750;9.078;2023-07-29T08:59:56;3.27;;;1.60;;
2299;SDS011;1158;48.750;9.078;2023-07-29T09:02:24;2.43;;;1.43;;
2299;SDS011;1158;48.750;9.078;2023-07-29T09:04:51;2.70;;;1.53;;
2299;SDS011;1158;48.750;9.078;2023-07-29T09:07:19;2.40;;;1.87;;
2299;SDS011;1158;48.750;9.078;2023-07-29T09:09:46;4.03;;;1.50;;
2299;SDS011;1158;48.750;9.078;2023-07-29T09:12:13;5.03;;;1.50;;
2299;SDS011;1158;48.750;9.078;2023-07-29T09:14:40;3.30;;;1.60;;
2299;SDS011;1158;48.750;9.078;2023-07-29T09:17:07;3.00;;;1.60;;
2299;SDS011;1158;48.750;9.078;2023-07-29T09:19:34;3.07;;;1.63;;
2299;SDS011;1158;48.750;9.078;2023-07-29T09:22:01;2.10;;;1.33;;
2299;SDS011;1158;48.750;9.078;2023-07-29T09:24:30;4.57;;;1.93;;
2299;SDS011;1158;48.750;9.078;2023-07-29T09:26:57;7.20;;;1.93;;
2299;SDS011;1158;48.750;9.078;2023-07-29T09:29:27;3.47;;;1.80;;
2299;SDS011;1158;48.750;9.078;2023-07-29T09:31:55;2.37;;;1.50;;
2299;SDS011;1158;48.750;9.078;2023-07-29T09:34:45;4.10;;;1.67;;
2299;SDS011;1158;48.750;9.078;2023-07-29T09:37:15;2.93;;;1.33;;
2299;SDS011;1158;48.750;9.078;2023-07-29T09:39:45;3.23;;;1.70;;
2299;SDS011;1158;48.750;9.078;2023-07-29T09:42:16;3.50;;;1.73;;
2299;SDS011;1158;48.750;9.078;2023-07-29T09:44:44;3.30;;;1.80;;
2299;SDS011;1158;48.750;9.078;2023-07-29T09:47:18;2.20;;;1.67;;
2299;SDS011;1158;48.750;9.078;2023-07-29T09:49:46;3.03;;;1.87;;
2299;SDS011;1158;48.750;9.078;2023-07-29T09:52:14;3.87;;;1.77;;
2299;SDS011;1158;48.750;9.078;2023-07-29T09:54:42;2.37;;;1.70;;
2299;SDS011;1158;48.750;9.078;2023-07-29T09:57:11;3.90;;;1.73;;
2299;SDS011;1158;48.750;9.078;2023-07-29T09:59:39;2.40;;;1.50;;
2299;SDS011;1158;48.750;9.078;2023-07-29T10:02:06;3.43;;;1.80;;
2299;SDS011;1158;48.750;9.078;2023-07-29T10:04:39;3.20;;;1.77;;
2299;SDS011;1158;48.750;9.078;2023-07-29T10:07:08;4.03;;;2.17;;
2299;SDS011;1158;48.750;9.078;2023-07-29T10:09:36;2.60;;;1.70;;
2299;SDS011;1158;48.750;9.078;2023-07-29T10:12:05;2.40;;;1.63;;
2299;SDS011;1158;48.750;9.078;2023-07-29T10:14:33;2.70;;;1.87;;
2299;SDS011;1158;48.750;9.078;2023-07-29T10:17:00;2.83;;;2.07;;
2299;SDS011;1158;48.750;9.078;2023-07-29T10:19:28;7.40;;;2.10;;
2299;SDS011;1158;48.750;9.078;2023-07-29T10:21:55;3.10;;;2.10;;
2299;SDS011;1158;48.750;9.078;2023-07-29T10:24:25;2.73;;;1.83;;
2299;SDS011;1158;48.750;9.078;2023-07-29T10:26:58;2.60;;;1.80;;
2299;SDS011;1158;48.750;9.078;2023-07-29T10:29:30;3.07;;;1.90;;
2299;SDS011;1158;48.750;9.078;2023-07-29T10:32:01;3.40;;;1.87;;
2299;SDS011;1158;48.750;9.078;2023-07-29T10:34:30;3.50;;;1.77;;
2299;SDS011;1158;48.750;9.078;2023-07-29T10:36:58;3.20;;;1.80;;
2299;SDS011;1158;48.750;9.078;2023-07-29T10:39:25;4.07;;;2.03;;
2299;SDS011;1158;48.750;9.078;2023-07-29T10:41:55;3.23;;;1.90;;
2299;SDS011;1158;48.750;9.078;2023-07-29T10:47:23;2.97;;;1.93;;
2299;SDS011;1158;48.750;9.078;2023-07-29T10:49:51;2.90;;;1.60;;
2299;SDS011;1158;48.750;9.078;2023-07-29T10:55:25;2.43;;;1.70;;
2299;SDS011;1158;48.750;9.078;2023-07-29T10:58:04;3.70;;;1.70;;
2299;SDS011;1158;48.750;9.078;2023-07-29T11:00:34;3.13;;;2.17;;
2299;SDS011;1158;48.750;9.078;2023-07-29T11:03:02;2.20;;;1.50;;
2299;SDS011;1158;48.750;9.078;2023-07-29T11:08:17;2.50;;;1.70;;
2299;SDS011;1158;48.750;9.078;2023-07-29T11:10:57;3.30;;;1.77;;
2299;SDS011;1158;48.750;9.078;2023-07-29T11:13:26;3.10;;;1.70;;
2299;SDS011;1158;48.750;9.078;2023-07-29T11:15:55;3.50;;;1.83;;
2299;SDS011;1158;48.750;9.078;2023-07-29T11:18:25;3.20;;;1.70;;
2299;SDS011;1158;48.750;9.078;2023-07-29T11:20:54;2.20;;;1.50;;
2299;SDS011;1158;48.750;9.078;2023-07-29T11:23:32;3.17;;;2.07;;
2299;SDS011;1158;48.750;9.078;2023-07-29T11:26:01;2.10;;;1.37;;
2299;SDS011;1158;48.750;9.078;2023-07-29T11:28:29;3.10;;;1.90;;
2299;SDS011;1158;48.750;9.078;2023-07-29T11:30:58;2.77;;;1.83;;
2299;SDS011;1158;48.750;9.078;2023-07-29T11:33:25;2.37;;;1.70;;
2299;SDS011;1158;48.750;9.078;2023-07-29T11:35:53;2.37;;;1.40;;
2299;SDS011;1158;48.750;9.078;2023-07-29T11:38:20;2.90;;;2.00;;
2299;SDS011;1158;48.750;9.078;2023-07-29T11:40:54;3.90;;;1.70;;
2299;SDS011;1158;48.750;9.078;2023-07-29T11:43:23;2.47;;;1.47;;
2299;SDS011;1158;48.750;9.078;2023-07-29T11:45:50;2.30;;;1.43;;
2299;SDS011;1158;48.750;9.078;2023-07-29T11:48:21;2.07;;;1.40;;
2299;SDS011;1158;48.750;9.078;2023-07-29T11:50:53;2.40;;;1.43;;
2299;SDS011;1158;48.750;9.078;2023-07-29T11:53:20;3.07;;;1.83;;
2299;SDS011;1158;48.750;9.078;2023-07-29T11:55:49;4.37;;;1.60;;
2299;SDS011;1158;48.750;9.078;2023-07-29T11:58:17;2.40;;;1.87;;
2299;SDS011;1158;48.750;9.078;2023-07-29T12:00:44;3.00;;;1.67;;
2299;SDS011;1158;48.750;9.078;2023-07-29T12:03:11;2.90;;;1.40;;
2299;SDS011;1158;48.750;9.078;2023-07-29T12:05:39;2.77;;;1.80;;
2299;SDS011;1158;48.750;9.078;2023-07-29T12:08:06;3.43;;;1.50;;
2299;SDS011;1158;48.750;9.078;2023-07-29T12:10:35;2.10;;;1.70;;
2299;SDS011;1158;48.750;9.078;2023-07-29T12:13:02;2.50;;;1.80;;
2299;SDS011;1158;48.750;9.078;2023-07-29T12:15:29;2.43;;;1.63;;
2299;SDS011;1158;48.750;9.078;2023-07-29T12:17:56;3.10;;;1.50;;
2299;SDS011;1158;48.750;9.078;2023-07-29T12:20:25;3.00;;;1.90;;
2299;SDS011;1158;48.750;9.078;2023-07-29T12:22:53;3.43;;;1.97;;
2299;SDS011;1158;48.750;9.078;2023-07-29T12:25:21;4.43;;;1.90;;
2299;SDS011;1158;48.750;9.078;2023-07-29T12:27:48;3.60;;;2.30;;
2299;SDS011;1158;48.750;9.078;2023-07-29T12:30:15;4.93;;;1.80;;
2299;SDS011;1158;48.750;9.078;2023-07-29T12:32:43;3.03;;;1.80;;
2299;SDS011;1158;48.750;9.078;2023-07-29T12:35:11;2.43;;;1.77;;
2299;SDS011;1158;48.750;9.078;2023-07-29T12:37:38;3.00;;;1.97;;
2299;SDS011;1158;48.750;9.078;2023-07-29T12:40:19;2.53;;;1.93;;
2299;SDS011;1158;48.750;9.078;2023-07-29T12:42:47;2.80;;;1.70;;
2299;SDS011;1158;48.750;9.078;2023-07-29T12:45:15;4.70;;;1.97;;
2299;SDS011;1158;48.750;9.078;2023-07-29T12:47:42;3.63;;;1.87;;
2299;SDS011;1158;48.750;9.078;2023-07-29T12:50:09;2.70;;;1.90;;
2299;SDS011;1158;48.750;9.078;2023-07-29T12:52:36;4.00;;;1.90;;
2299;SDS011;1158;48.750;9.078;2023-07-29T12:55:03;4.50;;;2.50;;
2299;SDS011;1158;48.750;9.078;2023-07-29T12:57:32;2.90;;;2.10;;
2299;SDS011;1158;48.750;9.078;2023-07-29T12:59:58;5.60;;;2.33;;
2299;SDS011;1158;48.750;9.078;2023-07-29T13:02:25;2.77;;;1.97;;
2299;SDS011;1158;48.750;9.078;2023-07-29T13:04:52;3.30;;;1.80;;
2299;SDS011;1158;48.750;9.078;2023-07-29T13:07:18;2.87;;;2.13;;
2299;SDS011;1158;48.750;9.078;2023-07-29T13:09:45;3.77;;;2.10;;
2299;SDS011;1158;48.750;9.078;2023-07-29T13:12:12;2.97;;;2.13;;
2299;SDS011;1158;48.750;9.078;2023-07-29T13:14:40;3.00;;;1.77;;
2299;SDS011;1158;48.750;9.078;2023-07-29T13:17:07;5.00;;;2.07;;
2299;SDS011;1158;48.750;9.078;2023-07-29T13:19:33;6.20;;;2.20;;
2299;SDS011;1158;48.750;9.078;2023-07-29T13:22:00;4.70;;;2.07;;
2299;SDS011;1158;48.750;9.078;2023-07-29T13:24:27;3.63;;;1.77;;
2299;SDS011;1158;48.750;9.078;2023-07-29T13:26:54;3.33;;;1.90;;
2299;SDS011;1158;48.750;9.078;2023-07-29T13:29:21;3.13;;;1.93;;
2299;SDS011;1158;48.750;9.078;2023-07-29T13:31:49;5.50;;;2.40;;
2299;SDS011;1158;48.750;9.078;2023-07-29T13:34:16;3.60;;;2.23;;
2299;SDS011;1158;48.750;9.078;2023-07-29T13:36:43;2.93;;;2.00;;
2299;SDS011;1158;48.750;9.078;2023-07-29T13:39:10;2.73;;;2.07;;
2299;SDS011;1158;48.750;9.078;2023-07-29T13:41:36;3.20;;;1.97;;
2299;SDS011;1158;48.750;9.078;2023-07-29T13:44:03;3.57;;;2.00;;
2299;SDS011;1158;48.750;9.078;2023-07-29T13:46:30;3.57;;;2.07;;
2299;SDS011;1158;48.750;9.078;2023-07-29T13:48:58;5.20;;;2.30;;
2299;SDS011;1158;48.750;9.078;2023-07-29T13:51:25;2.97;;;2.13;;
2299;SDS011;1158;48.750;9.078;2023-07-29T13:53:52;2.63;;;1.70;;
2299;SDS011;1158;48.750;9.078;2023-07-29T13:56:19;2.90;;;2.20;;
2299;SDS011;1158;48.750;9.078;2023-07-29T13:58:45;3.50;;;2.40;;
2299;SDS011;1158;48.750;9.078;2023-07-29T14:01:12;2.70;;;1.90;;
2299;SDS011;1158;48.750;9.078;2023-07-29T14:03:39;3.53;;;1.90;;
2299;SDS011;1158;48.750;9.078;2023-07-29T14:06:07;3.40;;;1.80;;
2299;SDS011;1158;48.750;9.078;2023-07-29T14:08:34;2.50;;;1.77;;
2299;SDS011;1158;48.750;9.078;2023-07-29T14:11:01;2.77;;;2.00;;
2299;SDS011;1158;48.750;9.078;2023-07-29T14:13:28;3.03;;;2.10;;
2299;SDS011;1158;48.750;9.078;2023-07-29T14:15:54;3.67;;;1.70;;
2299;SDS011;1158;48.750;9.078;2023-07-29T14:18:21;2.97;;;2.20;;
2299;SDS011;1158;48.750;9.078;2023-07-29T14:20:48;3.87;;;2.33;;
2299;SDS011;1158;48.750;9.078;2023-07-29T14:23:17;5.30;;;2.23;;
2299;SDS011;1158;48.750;9.078;2023-07-29T14:25:44;3.50;;;2.17;;
2299;SDS011;1158;48.750;9.078;2023-07-29T14:28:12;4.00;;;1.97;;
2299;SDS011;1158;48.750;9.078;2023-07-29T14:30:39;3.20;;;2.10;;
2299;SDS011;1158;48.750;9.078;2023-07-29T14:33:06;4.20;;;2.20;;
2299;SDS011;1158;48.750;9.078;2023-07-29T14:35:33;4.93;;;2.03;;
2299;SDS011;1158;48.750;9.078;2023-07-29T14:38:00;3.80;;;3.00;;
2299;SDS011;1158;48.750;9.078;2023-07-29T14:40:28;3.00;;;2.30;;
2299;SDS011;1158;48.750;9.078;2023-07-29T14:42:55;3.50;;;2.60;;
2299;SDS011;1158;48.750;9.078;2023-07-29T14:45:22;3.80;;;2.40;;
2299;SDS011;1158;48.750;9.078;2023-07-29T14:47:49;4.27;;;2.50;;
2299;SDS011;1158;48.750;9.078;2023-07-29T14:50:15;3.40;;;2.43;;
2299;SDS011;1158;48.750;9.078;2023-07-29T14:52:42;3.27;;;2.13;;
2299;SDS011;1158;48.750;9.078;2023-07-29T14:55:09;3.00;;;2.20;;
2299;SDS011;1158;48.750;9.078;2023-07-29T14:57:37;2.40;;;1.73;;
2299;SDS011;1158;48.750;9.078;2023-07-29T15:00:06;4.43;;;2.57;;
2299;SDS011;1158;48.750;9.078;2023-07-29T15:02:33;2.80;;;1.83;;
2299;SDS011;1158;48.750;9.078;2023-07-29T15:05:00;3.27;;;2.37;;
2299;SDS011;1158;48.750;9.078;2023-07-29T15:07:27;5.13;;;2.40;;
2299;SDS011;1158;48.750;9.078;2023-07-29T15:09:54;3.23;;;2.20;;
2299;SDS011;1158;48.750;9.078;2023-07-29T15:12:21;3.27;;;1.93;;
2299;SDS011;1158;48.750;9.078;2023-07-29T15:14:49;2.77;;;1.97;;
2299;SDS011;1158;48.750;9.078;2023-07-29T15:17:16;3.17;;;2.20;;
2299;SDS011;1158;48.750;9.078;2023-07-29T15:19:42;4.87;;;2.17;;
2299;SDS011;1158;48.750;9.078;2023-07-29T15:22:09;2.27;;;1.97;;
2299;SDS011;1158;48.750;9.078;2023-07-29T15:24:36;2.20;;;1.60;;
2299;SDS011;1158;48.750;9.078;2023-07-29T15:27:04;3.03;;;2.17;;